Time;durP1;ratioP1;P1;durP2;ratioP2;P2;SDS_P1;SDS_P2;PMS_P1;PMS_P2;Temp;Humidity;BMP_temperature;BMP_pressure;BME280_temperature;BME280_humidity;BME280_pressure;Samples;Min_cycle;Max_cycle;Signal;HPM_P1;HPM_P2
2021/01/09 00:02:08;;;;;;;;;;;;;;;26.66;24.80;100393.41;5098793;28;837;-44
2021/01/09 00:04:33;;;;;;;;;;;;;;;26.51;24.56;100410.44;5099041;28;837;-32
2021/01/09 00:06:59;;;;;;;;;;;;;;;25.97;25.63;100398.88;5098865;28;937;-32
2021/01/09 00:09:24;;;;;;;;;;;;;;;26.22;25.03;100387.84;5098863;28;1964;-34
2021/01/09 00:11:49;;;;;;;;;;;;;;;26.47;25.18;100402.91;5098683;28;942;-43
2021/01/09 00:14:15;;;;;;;;;;;;;;;26.60;24.86;100386.06;5099332;28;778;-45
2021/01/09 00:16:47;;;;;;;;;;;;;;;26.47;24.60;100419.94;5098215;28;1121;-33
2021/01/09 00:19:12;;;;;;;;;;;;;;;26.09;25.40;100422.69;5098687;28;790;-32
2021/01/09 00:21:38;;;;;;;;;;;;;;;26.16;25.34;100402.88;5094774;28;953;-33
2021/01/09 00:24:09;;;;;;;;;;;;;;;26.61;24.92;100429.03;5077933;28;1122;-33
2021/01/09 00:26:35;;;;;;;;;;;;;;;26.51;24.53;100412.28;5078257;28;752;-32
2021/01/09 00:29:00;;;;;;;;;;;;;;;26.12;25.29;100423.16;5078076;28;1905;-32
2021/01/09 00:31:26;;;;;;;;;;;;;;;26.14;25.20;100434.56;5077891;28;839;-30
2021/01/09 00:33:51;;;;;;;;;;;;;;;26.39;25.29;100439.75;5078470;28;759;-44
2021/01/09 00:36:16;;;;;;;;;;;;;;;26.58;24.97;100434.81;5078723;28;962;-32
2021/01/09 00:38:41;;;;;;;;;;;;;;;26.54;24.69;100428.13;5098027;28;783;-34
2021/01/09 00:41:07;;;;;;;;;;;;;;;26.05;25.77;100427.59;5098204;28;751;-31
2021/01/09 00:43:32;;;;;;;;;;;;;;;26.06;25.36;100420.38;5098381;28;755;-30
2021/01/09 00:45:57;;;;;;;;;;;;;;;26.39;25.08;100426.25;5098037;28;846;-31
2021/01/09 00:48:23;;;;;;;;;;;;;;;26.65;24.71;100440.31;5098272;28;766;-30
2021/01/09 00:50:48;;;;;;;;;;;;;;;26.34;25.06;100446.72;5098126;28;1965;-45
2021/01/09 00:53:13;;;;;;;;;;;;;;;26.00;25.52;100435.41;5097711;28;957;-31
2021/01/09 00:55:38;;;;;;;;;;;;;;;26.31;25.23;100439.78;5098134;28;815;-34
2021/01/09 00:58:04;;;;;;;;;;;;;;;26.53;24.89;100448.88;5098360;28;831;-33
2021/01/09 01:00:29;;;;;;;;;;;;;;;26.57;24.80;100452.03;5097787;28;771;-32
2021/01/09 01:02:54;;;;;;;;;;;;;;;26.33;25.45;100442.34;5097952;28;839;-41
2021/01/09 01:05:19;;;;;;;;;;;;;;;25.88;25.54;100446.63;5097866;28;818;-44
2021/01/09 01:07:45;;;;;;;;;;;;;;;26.36;25.16;100432.03;5097411;28;957;-33
2021/01/09 01:10:12;;;;;;;;;;;;;;;26.55;24.87;100447.84;5097763;28;1984;-32
2021/01/09 01:12:37;;;;;;;;;;;;;;;26.55;24.33;100467.56;5097616;28;962;-30
2021/01/09 01:15:03;;;;;;;;;;;;;;;26.24;25.00;100453.19;5097350;28;814;-35
2021/01/09 01:17:28;;;;;;;;;;;;;;;26.13;25.22;100429.38;5097966;28;1186;-44
2021/01/09 01:19:53;;;;;;;;;;;;;;;26.45;25.08;100427.38;5097492;28;818;-33
2021/01/09 01:22:19;;;;;;;;;;;;;;;26.60;24.89;100451.66;5087583;28;1005;-43
2021/01/09 01:24:44;;;;;;;;;;;;;;;26.59;24.37;100455.34;5076998;28;1103;-32
2021/01/09 01:27:09;;;;;;;;;;;;;;;26.09;25.43;100457.72;5077148;28;755;-34
2021/01/09 01:29:34;;;;;;;;;;;;;;;26.12;25.29;100452.81;5076808;28;1989;-34
2021/01/09 01:32:00;;;;;;;;;;;;;;;26.49;25.05;100458.34;5077033;28;783;-43
2021/01/09 01:34:25;;;;;;;;;;;;;;;26.58;24.34;100474.44;5077010;28;775;-33
2021/01/09 01:36:50;;;;;;;;;;;;;;;26.08;25.48;100462.28;5082238;28;1024;-43
2021/01/09 01:39:16;;;;;;;;;;;;;;;26.09;25.27;100455.84;5097214;28;806;-33
2021/01/09 01:41:41;;;;;;;;;;;;;;;26.57;24.75;100462.81;5097124;28;810;-42
2021/01/09 01:44:07;;;;;;;;;;;;;;;26.62;24.77;100467.66;5096988;28;895;-30
2021/01/09 01:46:32;;;;;;;;;;;;;;;26.65;24.29;100465.44;5097131;28;810;-33
2021/01/09 01:48:57;;;;;;;;;;;;;;;26.16;25.37;100461.34;5095490;28;1972;-34
2021/01/09 01:51:23;;;;;;;;;;;;;;;25.95;25.22;100454.81;5095591;28;958;-41
2021/01/09 01:53:49;;;;;;;;;;;;;;;26.44;24.97;100431.13;5096199;28;814;-41
2021/01/09 01:56:15;;;;;;;;;;;;;;;26.69;24.47;100438.91;5097090;28;881;-43
2021/01/09 01:58:40;;;;;;;;;;;;;;;26.28;25.01;100456.34;5096648;28;973;-31
2021/01/09 02:01:05;;;;;;;;;;;;;;;26.12;24.96;100458.22;5096327;28;763;-34
2021/01/09 02:03:30;;;;;;;;;;;;;;;26.37;24.82;100490.34;5095468;28;1242;-31
2021/01/09 02:05:56;;;;;;;;;;;;;;;26.48;24.79;100502.53;5097191;28;762;-29
2021/01/09 02:08:22;;;;;;;;;;;;;;;26.62;24.55;100487.38;5096168;28;961;-39
2021/01/09 02:10:47;;;;;;;;;;;;;;;26.33;24.86;100474.69;5097011;28;1906;-31
2021/01/09 02:13:24;;;;;;;;;;;;;;;25.87;25.64;100462.97;5095225;28;795;-33
2021/01/09 02:15:50;;;;;;;;;;;;;;;26.33;24.82;100453.13;5095168;28;807;-31
2021/01/09 02:18:16;;;;;;;;;;;;;;;26.64;24.44;100469.13;5095657;28;1266;-39
2021/01/09 02:20:41;;;;;;;;;;;;;;;26.53;24.41;100492.03;5096838;28;776;-30
2021/01/09 02:23:07;;;;;;;;;;;;;;;26.16;25.15;100491.00;5078642;28;942;-33
2021/01/09 02:25:32;;;;;;;;;;;;;;;26.21;24.84;100502.09;5076419;28;1224;-44
2021/01/09 02:27:57;;;;;;;;;;;;;;;26.51;24.58;100501.31;5076335;28;804;-31
2021/01/09 02:30:24;;;;;;;;;;;;;;;26.57;24.62;100491.66;5075950;28;1909;-41
2021/01/09 02:32:50;;;;;;;;;;;;;;;26.58;24.35;100509.50;5076396;28;846;-44
2021/01/09 02:35:16;;;;;;;;;;;;;;;26.25;25.13;100532.22;5075018;28;815;-30
2021/01/09 02:37:44;;;;;;;;;;;;;;;26.11;24.62;100526.59;5088160;28;1008;-44
2021/01/09 02:40:12;;;;;;;;;;;;;;;26.51;24.64;100517.50;5095187;28;874;-31
2021/01/09 02:42:37;;;;;;;;;;;;;;;26.66;24.23;100520.19;5095044;28;838;-32
2021/01/09 02:45:03;;;;;;;;;;;;;;;26.15;24.88;100505.50;5096501;28;967;-32
2021/01/09 02:47:28;;;;;;;;;;;;;;;26.35;24.25;100511.25;5095249;28;751;-44
2021/01/09 02:49:53;;;;;;;;;;;;;;;26.23;24.14;100536.94;5096310;28;1910;-31
2021/01/09 02:52:19;;;;;;;;;;;;;;;26.19;24.10;100511.38;5095738;28;1001;-32
2021/01/09 02:54:44;;;;;;;;;;;;;;;26.59;23.83;100509.31;5096290;28;962;-30
2021/01/09 02:57:09;;;;;;;;;;;;;;;26.42;23.68;100530.25;5096311;28;767;-32
2021/01/09 02:59:34;;;;;;;;;;;;;;;25.96;24.18;100541.91;5096036;28;859;-32
2021/01/09 03:02:00;;;;;;;;;;;;;;;26.37;24.08;100532.66;5096251;28;814;-41
2021/01/09 03:04:25;;;;;;;;;;;;;;;26.53;23.73;100564.00;5096708;28;791;-42
2021/01/09 03:06:50;;;;;;;;;;;;;;;26.47;23.35;100575.53;5099650;28;1004;-31
2021/01/09 03:09:16;;;;;;;;;;;;;;;26.01;24.26;100571.81;5099907;28;1910;-30
2021/01/09 03:11:41;;;;;;;;;;;;;;;26.15;24.00;100571.06;5100136;28;881;-33
2021/01/09 03:14:06;;;;;;;;;;;;;;;26.51;23.56;100568.75;5099752;28;788;-34
2021/01/09 03:16:31;;;;;;;;;;;;;;;26.62;23.44;100562.94;5100143;28;1133;-43
2021/01/09 03:18:57;;;;;;;;;;;;;;;26.36;23.62;100550.69;5100116;28;949;-44
2021/01/09 03:21:22;;;;;;;;;;;;;;;25.94;24.26;100573.59;5097801;28;1044;-36
2021/01/09 03:23:47;;;;;;;;;;;;;;;26.10;23.61;100575.31;5079299;28;1147;-44
2021/01/09 03:26:12;;;;;;;;;;;;;;;26.42;23.54;100594.97;5079616;28;763;-43
2021/01/09 03:28:38;;;;;;;;;;;;;;;26.54;23.22;100598.06;5079532;28;807;-32
2021/01/09 03:31:03;;;;;;;;;;;;;;;26.34;23.13;100589.66;5079201;28;1969;-43
2021/01/09 03:33:29;;;;;;;;;;;;;;;25.89;24.04;100580.34;5079831;28;866;-44
2021/01/09 03:35:54;;;;;;;;;;;;;;;26.23;23.53;100575.53;5079280;28;786;-35
2021/01/09 03:38:20;;;;;;;;;;;;;;;26.47;23.35;100592.56;5097087;28;1020;-33
2021/01/09 03:40:45;;;;;;;;;;;;;;;26.50;23.32;100611.09;5099568;28;826;-30
2021/01/09 03:43:10;;;;;;;;;;;;;;;26.26;23.39;100601.28;5099166;28;763;-30
2021/01/09 03:45:36;;;;;;;;;;;;;;;26.03;23.60;100605.69;5099453;28;834;-33
2021/01/09 03:48:01;;;;;;;;;;;;;;;26.32;23.51;100629.41;5099586;28;755;-33
2021/01/09 03:50:26;;;;;;;;;;;;;;;26.38;23.21;100636.78;5098795;28;1952;-34
2021/01/09 03:52:51;;;;;;;;;;;;;;;26.59;22.83;100646.91;5099278;28;958;-33
2021/01/09 03:55:17;;;;;;;;;;;;;;;26.16;23.56;100642.81;5099348;28;822;-31
2021/01/09 03:57:42;;;;;;;;;;;;;;;26.15;23.16;100637.63;5098829;28;822;-32
2021/01/09 04:00:07;;;;;;;;;;;;;;;26.33;23.43;100636.50;5099253;28;781;-34
2021/01/09 04:02:33;;;;;;;;;;;;;;;26.38;23.39;100644.88;5099495;28;755;-30
2021/01/09 04:04:58;;;;;;;;;;;;;;;26.57;22.96;100654.34;5098920;28;874;-33
2021/01/09 04:07:24;;;;;;;;;;;;;;;26.23;23.22;100656.44;5098580;28;965;-33
2021/01/09 04:09:49;;;;;;;;;;;;;;;26.26;22.87;100664.16;5099141;28;1906;-33
2021/01/09 04:12:14;;;;;;;;;;;;;;;26.34;23.34;100665.97;5098463;28;894;-36
2021/01/09 04:14:39;;;;;;;;;;;;;;;23.80;22.37;100663.16;5099062;28;815;-37
2021/01/09 04:17:05;;;;;;;;;;;;;;;20.32;25.53;100646.66;5098409;28;1134;-37
2021/01/09 04:19:30;;;;;;;;;;;;;;;20.03;25.35;100650.13;5098691;28;831;-38
2021/01/09 04:21:55;;;;;;;;;;;;;;;19.26;26.78;100658.53;5094874;28;966;-37
2021/01/09 04:24:21;;;;;;;;;;;;;;;17.00;29.73;100643.63;5098376;28;1298;-38
2021/01/09 04:26:53;;;;;;;;;;;;;;;17.71;28.11;100639.13;5098685;28;730;-39
2021/01/09 04:29:18;;;;;;;;;;;;;;;17.79;29.73;100642.00;5098935;28;1910;-42
2021/01/09 04:31:43;;;;;;;;;;;;;;;21.47;24.71;100645.09;5098388;28;779;-37
2021/01/09 04:34:08;;;;;;;;;;;;;;;22.36;24.27;100648.13;5098614;28;901;-34
2021/01/09 04:36:34;;;;;;;;;;;;;;;22.93;24.04;100664.00;5097920;28;1012;-36
2021/01/09 04:38:59;;;;;;;;;;;;;;;23.47;23.58;100684.50;5098053;28;862;-42
2021/01/09 04:41:24;;;;;;;;;;;;;;;19.79;25.48;100680.66;5098397;28;763;-38
2021/01/09 04:43:49;;;;;;;;;;;;;;;18.97;26.95;100660.03;5096807;28;822;-37
2021/01/09 04:46:18;;;;;;;;;;;;;;;19.11;26.65;100650.03;5098295;28;779;-43
2021/01/09 04:48:44;;;;;;;;;;;;;;;18.66;27.87;100670.59;5097121;28;790;-41
2021/01/09 04:51:09;;;;;;;;;;;;;;;17.81;28.92;100687.97;5097819;28;1967;-38
2021/01/09 04:53:35;;;;;;;;;;;;;;;18.39;27.74;100693.22;5097032;28;1000;-44
2021/01/09 04:56:01;;;;;;;;;;;;;;;17.36;29.64;100688.81;5096989;28;731;-37
2021/01/09 04:58:26;;;;;;;;;;;;;;;17.83;28.98;100686.03;5097758;28;875;-36
2021/01/09 05:00:54;;;;;;;;;;;;;;;16.47;30.99;100698.88;5096317;28;1321;-39
2021/01/09 05:03:23;;;;;;;;;;;;;;;17.28;29.73;100731.94;5096920;28;779;-40
2021/01/09 05:05:48;;;;;;;;;;;;;;;19.04;29.15;100721.66;5097264;28;814;-34
2021/01/09 05:08:13;;;;;;;;;;;;;;;22.26;24.26;100711.66;5097607;28;950;-34
2021/01/09 05:10:39;;;;;;;;;;;;;;;22.12;24.58;100718.38;5097623;28;1905;-34
2021/01/09 05:13:07;;;;;;;;;;;;;;;23.09;24.06;100747.28;5097405;28;807;-36
2021/01/09 05:15:38;;;;;;;;;;;;;;;23.35;24.59;100749.19;5097864;28;878;-43
2021/01/09 05:18:04;;;;;;;;;;;;;;;24.12;24.32;100762.00;5097666;28;1138;-33
2021/01/09 05:20:29;;;;;;;;;;;;;;;24.49;24.27;100770.72;5097486;28;767;-42
2021/01/09 05:22:54;;;;;;;;;;;;;;;24.92;23.73;100771.44;5082969;28;941;-42
2021/01/09 05:25:22;;;;;;;;;;;;;;;25.25;23.73;100764.38;5075931;28;1293;-34
2021/01/09 05:27:48;;;;;;;;;;;;;;;25.62;23.32;100771.06;5076189;28;762;-41
2021/01/09 05:30:13;;;;;;;;;;;;;;;25.84;23.34;100782.13;5076326;28;1983;-42
2021/01/09 05:32:39;;;;;;;;;;;;;;;26.24;23.04;100784.00;5075469;28;1181;-40
2021/01/09 05:35:04;;;;;;;;;;;;;;;26.50;22.74;100772.09;5076758;28;842;-44
2021/01/09 05:37:29;;;;;;;;;;;;;;;26.58;22.99;100785.53;5086709;28;1302;-43
2021/01/09 05:39:55;;;;;;;;;;;;;;;26.80;22.73;100796.50;5097118;28;901;-43
2021/01/09 05:42:24;;;;;;;;;;;;;;;27.06;22.81;100783.69;5097303;28;754;-42
2021/01/09 05:44:50;;;;;;;;;;;;;;;27.10;22.66;100769.66;5097639;28;799;-33
2021/01/09 05:47:16;;;;;;;;;;;;;;;27.21;22.74;100756.72;5096971;28;787;-31
2021/01/09 05:49:42;;;;;;;;;;;;;;;27.34;22.86;100764.19;5095428;28;1902;-41
2021/01/09 05:52:08;;;;;;;;;;;;;;;27.44;22.76;100780.97;5097210;28;946;-40
2021/01/09 05:54:34;;;;;;;;;;;;;;;27.56;22.51;100794.03;5095124;28;1084;-41
2021/01/09 05:57:00;;;;;;;;;;;;;;;27.68;22.72;100807.91;5096431;28;858;-42
2021/01/09 05:59:28;;;;;;;;;;;;;;;27.75;22.54;100807.03;5097099;28;787;-35
2021/01/09 06:01:55;;;;;;;;;;;;;;;27.86;22.53;100808.41;5094847;28;787;-41
2021/01/09 06:04:20;;;;;;;;;;;;;;;27.92;22.23;100808.69;5095409;28;818;-43
2021/01/09 06:06:46;;;;;;;;;;;;;;;28.04;22.23;100804.50;5095196;28;1005;-45
2021/01/09 06:09:13;;;;;;;;;;;;;;;28.05;22.55;100817.00;5096711;28;1901;-44
2021/01/09 06:11:38;;;;;;;;;;;;;;;28.06;22.62;100836.75;5095304;28;842;-43
2021/01/09 06:14:04;;;;;;;;;;;;;;;28.12;22.43;100838.72;5096796;28;757;-43
2021/01/09 06:16:30;;;;;;;;;;;;;;;28.16;22.59;100840.00;5096370;28;1118;-34
2021/01/09 06:18:57;;;;;;;;;;;;;;;27.78;22.77;100837.41;5095273;28;774;-43
2021/01/09 06:21:22;;;;;;;;;;;;;;;27.30;23.69;100836.66;5094855;28;957;-36
2021/01/09 06:23:47;;;;;;;;;;;;;;;26.91;24.31;100849.22;5076303;28;956;-41
2021/01/09 06:26:13;;;;;;;;;;;;;;;27.16;24.25;100864.44;5074815;28;764;-42
2021/01/09 06:28:39;;;;;;;;;;;;;;;27.06;24.18;100870.91;5076458;28;787;-43
2021/01/09 06:31:05;;;;;;;;;;;;;;;27.46;24.10;100888.84;5086675;28;1914;-34
2021/01/09 06:33:31;;;;;;;;;;;;;;;27.81;23.30;100885.69;5094589;28;870;-43
2021/01/09 06:35:57;;;;;;;;;;;;;;;27.92;23.23;100869.03;5095258;28;758;-31
2021/01/09 06:38:22;;;;;;;;;;;;;;;27.75;23.54;100877.28;5095486;28;954;-43
2021/01/09 06:40:49;;;;;;;;;;;;;;;27.77;23.88;100879.81;5100380;28;736;-43
2021/01/09 06:43:15;;;;;;;;;;;;;;;27.92;23.30;100887.94;5100512;28;770;-42
2021/01/09 06:45:41;;;;;;;;;;;;;;;28.03;23.31;100900.16;5099574;28;763;-43
2021/01/09 06:48:06;;;;;;;;;;;;;;;28.13;23.35;100916.09;5100300;28;967;-44
2021/01/09 06:50:32;;;;;;;;;;;;;;;28.27;22.79;100925.25;5098950;28;1953;-32
2021/01/09 06:52:57;;;;;;;;;;;;;;;28.46;22.75;100937.41;5100488;28;1005;-44
2021/01/09 06:55:38;;;;;;;;;;;;;;;28.60;22.46;100933.00;5100149;28;755;-31
2021/01/09 06:58:03;;;;;;;;;;;;;;;28.60;22.44;100938.41;5100146;28;740;-42
2021/01/09 07:00:29;;;;;;;;;;;;;;;28.73;22.66;100945.88;5100055;28;823;-32
2021/01/09 07:03:09;;;;;;;;;;;;;;;28.79;22.71;100941.56;5099843;28;839;-42
2021/01/09 07:05:41;;;;;;;;;;;;;;;27.90;23.59;100943.22;5099956;28;807;-42
2021/01/09 07:08:06;;;;;;;;;;;;;;;27.43;24.30;100949.47;5099667;28;997;-42
2021/01/09 07:10:32;;;;;;;;;;;;;;;28.38;23.34;100950.19;5099283;28;1898;-42
2021/01/09 07:13:06;;;;;;;;;;;;;;;28.38;23.25;100955.59;5098934;28;858;-42
2021/01/09 07:15:32;;;;;;;;;;;;;;;28.09;23.43;100958.91;5098369;28;964;-42
2021/01/09 07:18:01;;;;;;;;;;;;;;;28.34;23.21;100966.78;5099549;28;1208;-41
2021/01/09 07:20:34;;;;;;;;;;;;;;;28.52;23.01;100976.41;5098302;28;889;-35
2021/01/09 07:23:00;;;;;;;;;;;;;;;28.54;22.80;100982.47;5083264;28;1021;-43
2021/01/09 07:25:29;;;;;;;;;;;;;;;28.68;23.00;100997.00;5078678;28;1083;-44
2021/01/09 07:27:55;;;;;;;;;;;;;;;28.78;22.84;100983.19;5079542;28;779;-42
2021/01/09 07:30:21;;;;;;;;;;;;;;;28.97;22.58;100997.19;5079300;28;1906;-43
2021/01/09 07:32:50;;;;;;;;;;;;;;;29.02;22.63;101002.91;5078896;28;755;-40
2021/01/09 07:35:19;;;;;;;;;;;;;;;29.04;22.54;100998.13;5079054;28;814;-38
2021/01/09 07:37:44;;;;;;;;;;;;;;;28.75;22.80;100990.84;5092230;28;1002;-41
2021/01/09 07:40:10;;;;;;;;;;;;;;;28.09;23.47;100983.22;5099268;28;841;-44
2021/01/09 07:42:35;;;;;;;;;;;;;;;27.91;24.17;100991.69;5099671;28;775;-43
2021/01/09 07:45:04;;;;;;;;;;;;;;;28.67;23.27;100986.38;5099545;28;874;-43
2021/01/09 07:47:30;;;;;;;;;;;;;;;28.66;23.15;100999.06;5099129;28;819;-43
2021/01/09 07:49:55;;;;;;;;;;;;;;;28.82;23.14;101005.31;5097773;28;1902;-44
2021/01/09 07:52:23;;;;;;;;;;;;;;;28.67;23.22;101005.31;5098584;28;1008;-42
2021/01/09 07:54:51;;;;;;;;;;;;;;;28.87;22.82;101019.13;5099094;28;866;-38
2021/01/09 07:57:19;;;;;;;;;;;;;;;28.38;23.48;101031.38;5099325;28;802;-43
2021/01/09 07:59:53;;;;;;;;;;;;;;;27.87;23.99;101031.78;5099093;28;834;-32
2021/01/09 08:02:22;;;;;;;;;;;;;;;28.53;23.54;101025.97;5098873;28;823;-43
2021/01/09 08:04:47;;;;;;;;;;;;;;;28.73;23.29;101018.94;5099286;28;870;-43
2021/01/09 08:07:15;;;;;;;;;;;;;;;28.67;23.25;101024.28;5098948;28;1017;-44
2021/01/09 08:09:40;;;;;;;;;;;;;;;28.28;23.93;101016.19;5098698;28;1902;-44
2021/01/09 08:12:06;;;;;;;;;;;;;;;28.48;23.51;101027.34;5098949;28;818;-43
2021/01/09 08:14:31;;;;;;;;;;;;;;;28.79;22.92;101035.47;5099080;28;743;-41
2021/01/09 08:17:05;;;;;;;;;;;;;;;28.50;23.49;101037.13;5098573;28;1098;-42
2021/01/09 08:19:30;;;;;;;;;;;;;;;27.95;24.04;101030.88;5097737;28;814;-38
2021/01/09 08:21:56;;;;;;;;;;;;;;;28.26;23.78;101028.22;5092429;28;953;-41
2021/01/09 08:24:24;;;;;;;;;;;;;;;28.63;23.47;101045.44;5076650;28;1132;-35
2021/01/09 08:26:50;;;;;;;;;;;;;;;29.15;22.64;101056.38;5078744;28;755;-45
2021/01/09 08:29:16;;;;;;;;;;;;;;;29.44;22.35;101070.91;5078040;28;1973;-41
2021/01/09 08:31:41;;;;;;;;;;;;;;;29.38;22.33;101068.13;5078414;28;799;-43
2021/01/09 08:34:09;;;;;;;;;;;;;;;29.43;22.39;101063.78;5077239;28;1063;-43
2021/01/09 08:36:34;;;;;;;;;;;;;;;29.55;22.19;101064.13;5081151;28;1017;-43
2021/01/09 08:39:00;;;;;;;;;;;;;;;29.64;22.28;101059.47;5098196;28;763;-42
2021/01/09 08:41:34;;;;;;;;;;;;;;;28.53;23.69;101061.97;5097536;28;1407;-44
2021/01/09 08:44:09;;;;;;;;;;;;;;;28.04;24.20;101061.41;5098483;28;771;-46
2021/01/09 08:46:35;;;;;;;;;;;;;;;28.22;24.12;101063.78;5098118;28;794;-34
2021/01/09 08:49:00;;;;;;;;;;;;;;;28.40;24.04;101064.47;5097012;28;794;-34
2021/01/09 08:51:25;;;;;;;;;;;;;;;27.82;24.69;101080.16;5097435;28;1972;-36
2021/01/09 08:53:51;;;;;;;;;;;;;;;28.15;24.55;101078.19;5097789;28;806;-44
2021/01/09 08:56:20;;;;;;;;;;;;;;;28.71;23.51;101077.03;5096442;28;815;-44
2021/01/09 08:58:46;;;;;;;;;;;;;;;28.48;23.80;101086.03;5098175;28;806;-45
2021/01/09 09:01:12;;;;;;;;;;;;;;;28.02;24.48;101062.56;5097195;28;804;-42
2021/01/09 09:03:44;;;;;;;;;;;;;;;27.51;25.17;101052.09;5096712;28;783;-40
2021/01/09 09:06:12;;;;;;;;;;;;;;;28.21;24.30;101059.38;5090351;28;886;-40
2021/01/09 09:08:38;;;;;;;;;;;;;;;27.25;25.64;101057.81;5090997;28;955;-39
2021/01/09 09:11:03;;;;;;;;;;;;;;;27.18;25.93;101060.38;5093307;28;1910;-34
2021/01/09 09:13:29;;;;;;;;;;;;;;;28.39;24.27;101060.09;5096228;28;859;-32
2021/01/09 09:15:54;;;;;;;;;;;;;;;28.58;23.63;101050.59;5093216;28;815;-32
2021/01/09 09:18:19;;;;;;;;;;;;;;;28.62;24.04;101048.34;5095530;28;866;-40
2021/01/09 09:20:45;;;;;;;;;;;;;;;28.67;23.77;101060.31;5097200;28;882;-41
2021/01/09 09:23:17;;;;;;;;;;;;;;;28.97;23.26;101048.66;5097371;28;958;-41
2021/01/09 09:25:43;;;;;;;;;;;;;;;28.79;23.64;101052.56;5097034;28;1329;-40
2021/01/09 09:28:08;;;;;;;;;;;;;;;28.77;23.43;101056.47;5094366;28;919;-30
2021/01/09 09:30:33;;;;;;;;;;;;;;;28.26;24.22;101053.41;5092945;28;1913;-41
2021/01/09 09:33:12;;;;;;;;;;;;;;;28.34;24.08;101052.53;5096720;28;807;-40
2021/01/09 09:35:37;;;;;;;;;;;;;;;28.08;24.41;101051.88;5096515;28;798;-39
2021/01/09 09:38:03;;;;;;;;;;;;;;;27.60;25.44;101055.59;5096436;28;993;-32
2021/01/09 09:40:31;;;;;;;;;;;;;;;27.83;24.93;101056.63;5097228;28;759;-41
2021/01/09 09:43:12;;;;;;;;;;;;;;;28.48;24.19;101043.59;5092986;28;855;-35
2021/01/09 09:45:37;;;;;;;;;;;;;;;28.78;23.91;101045.47;5090260;28;978;-41
2021/01/09 09:48:03;;;;;;;;;;;;;;;28.23;24.48;101049.22;5094598;28;855;-41
2021/01/09 09:50:28;;;;;;;;;;;;;;;27.60;25.34;101052.88;5092146;28;1909;-42
2021/01/09 09:52:57;;;;;;;;;;;;;;;27.91;24.96;101043.06;5093658;28;839;-34
2021/01/09 09:55:22;;;;;;;;;;;;;;;28.76;24.06;101050.22;5094975;28;870;-35
2021/01/09 09:57:47;;;;;;;;;;;;;;;29.13;23.48;101055.72;5093353;28;894;-40
2021/01/09 10:00:13;;;;;;;;;;;;;;;28.96;23.39;101055.09;5094604;28;1265;-43
2021/01/09 10:02:54;;;;;;;;;;;;;;;28.87;23.69;101064.31;5094588;28;910;-42
2021/01/09 10:05:19;;;;;;;;;;;;;;;28.90;23.58;101063.94;5096129;28;815;-38
2021/01/09 10:07:44;;;;;;;;;;;;;;;28.98;23.59;101060.34;5091161;28;804;-42
2021/01/09 10:10:16;;;;;;;;;;;;;;;28.59;24.20;101063.94;5091688;28;1975;-45
2021/01/09 10:12:41;;;;;;;;;;;;;;;28.14;24.75;101057.59;5092710;28;895;-38
2021/01/09 10:15:09;;;;;;;;;;;;;;;28.23;24.60;101057.31;5094901;28;866;-44
2021/01/09 10:17:34;;;;;;;;;;;;;;;28.70;24.12;101061.78;5091062;28;855;-44
2021/01/09 10:20:00;;;;;;;;;;;;;;;28.82;24.03;101062.16;5094339;28;886;-34
2021/01/09 10:22:25;;;;;;;;;;;;;;;28.18;24.63;101058.88;5095744;28;1004;-44
2021/01/09 10:24:50;;;;;;;;;;;;;;;28.62;24.13;101049.19;5094238;28;1257;-44
2021/01/09 10:27:15;;;;;;;;;;;;;;;28.71;24.26;101052.66;5092047;28;914;-44
2021/01/09 10:29:41;;;;;;;;;;;;;;;28.31;24.61;101050.16;5090824;28;1975;-35
2021/01/09 10:32:06;;;;;;;;;;;;;;;28.03;24.66;101054.28;5091808;28;890;-32
2021/01/09 10:34:31;;;;;;;;;;;;;;;27.69;25.40;101052.88;5089131;28;914;-42
2021/01/09 10:36:57;;;;;;;;;;;;;;;27.99;24.90;101053.81;5095291;28;988;-34
2021/01/09 10:39:22;;;;;;;;;;;;;;;27.90;25.14;101030.56;5090569;28;996;-44
2021/01/09 10:41:49;;;;;;;;;;;;;;;28.17;24.75;101030.16;5094469;28;910;-42
2021/01/09 10:44:14;;;;;;;;;;;;;;;27.92;25.03;101033.94;5095111;28;847;-41
2021/01/09 10:46:39;;;;;;;;;;;;;;;28.27;24.64;101024.50;5095461;28;833;-39
2021/01/09 10:49:05;;;;;;;;;;;;;;;27.96;25.33;101023.59;5093695;28;1282;-43
2021/01/09 10:51:30;;;;;;;;;;;;;;;28.29;24.82;101027.88;5094979;28;1959;-43
2021/01/09 10:53:55;;;;;;;;;;;;;;;28.65;24.36;101023.63;5094748;28;854;-42
2021/01/09 10:56:21;;;;;;;;;;;;;;;28.72;24.18;101033.53;5095383;28;846;-43
2021/01/09 10:58:46;;;;;;;;;;;;;;;28.25;24.65;101032.78;5094995;28;875;-42
2021/01/09 11:01:11;;;;;;;;;;;;;;;28.05;25.03;101036.03;5094856;28;850;-43
2021/01/09 11:03:40;;;;;;;;;;;;;;;28.40;24.55;101032.84;5095180;28;847;-43
2021/01/09 11:06:05;;;;;;;;;;;;;;;28.72;24.16;101032.69;5095407;28;847;-42
2021/01/09 11:08:30;;;;;;;;;;;;;;;28.85;23.91;101032.00;5094710;28;949;-43
2021/01/09 11:10:55;;;;;;;;;;;;;;;28.76;24.13;101038.56;5095048;28;1894;-43
2021/01/09 11:13:21;;;;;;;;;;;;;;;28.75;24.02;101029.59;5095080;28;807;-44
2021/01/09 11:15:47;;;;;;;;;;;;;;;28.86;24.01;101039.13;5095704;28;754;-43
2021/01/09 11:18:12;;;;;;;;;;;;;;;28.30;24.58;101038.50;5094504;28;1166;-41
2021/01/09 11:20:37;;;;;;;;;;;;;;;28.36;24.64;101029.66;5096230;28;751;-42
2021/01/09 11:23:03;;;;;;;;;;;;;;;27.82;25.52;101027.94;5079931;28;996;-41
2021/01/09 11:25:28;;;;;;;;;;;;;;;28.65;24.72;101037.16;5076049;28;1113;-40
2021/01/09 11:27:53;;;;;;;;;;;;;;;28.75;24.53;101035.00;5079598;28;831;-30
2021/01/09 11:30:19;;;;;;;;;;;;;;;28.81;24.40;101036.94;5078919;28;1965;-36
2021/01/09 11:32:44;;;;;;;;;;;;;;;29.06;23.71;101041.28;5079252;28;855;-42
2021/01/09 11:35:09;;;;;;;;;;;;;;;28.88;24.08;101037.03;5079418;28;759;-42
2021/01/09 11:37:35;;;;;;;;;;;;;;;28.43;24.64;101037.03;5090332;28;1024;-32
2021/01/09 11:40:00;;;;;;;;;;;;;;;28.55;24.59;101045.53;5099282;28;866;-44
2021/01/09 11:42:25;;;;;;;;;;;;;;;28.78;24.16;101031.91;5099372;28;771;-41
2021/01/09 11:44:51;;;;;;;;;;;;;;;28.68;24.13;101034.06;5098942;28;890;-43
2021/01/09 11:47:16;;;;;;;;;;;;;;;28.48;24.83;101032.75;5099190;28;538;-43
2021/01/09 11:49:41;;;;;;;;;;;;;;;28.63;24.49;101028.41;5099239;28;1950;-43
2021/01/09 11:52:07;;;;;;;;;;;;;;;28.77;24.44;101027.53;5098622;28;961;-32
2021/01/09 11:54:32;;;;;;;;;;;;;;;28.83;24.17;101039.47;5099165;28;791;-42
2021/01/09 11:56:58;;;;;;;;;;;;;;;28.40;24.50;101030.16;5099239;28;743;-42
2021/01/09 11:59:23;;;;;;;;;;;;;;;28.49;24.86;101030.91;5098469;28;739;-41
2021/01/09 12:01:48;;;;;;;;;;;;;;;28.77;24.35;101037.53;5099127;28;795;-41
2021/01/09 12:04:14;;;;;;;;;;;;;;;28.82;24.28;101052.19;5099032;28;774;-42
2021/01/09 12:06:39;;;;;;;;;;;;;;;28.92;24.11;101054.59;5098197;28;949;-43
2021/01/09 12:09:04;;;;;;;;;;;;;;;28.76;24.57;101054.81;5098673;28;759;-43
2021/01/09 12:11:31;;;;;;;;;;;;;;;28.96;23.94;101053.19;5098668;28;1973;-43
2021/01/09 12:13:56;;;;;;;;;;;;;;;28.87;23.91;101070.56;5096399;28;720;-42
2021/01/09 12:16:31;;;;;;;;;;;;;;;28.32;24.93;101070.78;5098978;28;1133;-34
2021/01/09 12:18:56;;;;;;;;;;;;;;;28.57;24.73;101073.28;5098618;28;791;-33
2021/01/09 12:21:22;;;;;;;;;;;;;;;28.69;24.17;101074.50;5096470;28;997;-41
2021/01/09 12:23:47;;;;;;;;;;;;;;;28.69;24.26;101088.03;5077902;28;1649;-43
2021/01/09 12:26:17;;;;;;;;;;;;;;;28.84;24.05;101095.31;5078291;28;835;-43
2021/01/09 12:28:42;;;;;;;;;;;;;;;28.67;24.38;101089.22;5077918;28;760;-42
2021/01/09 12:31:07;;;;;;;;;;;;;;;28.90;24.38;101105.41;5077848;28;1913;-44
2021/01/09 12:33:32;;;;;;;;;;;;;;;28.78;23.98;101115.03;5077923;28;736;-43
2021/01/09 12:35:58;;;;;;;;;;;;;;;28.39;24.68;101109.66;5077616;28;642;-41
2021/01/09 12:38:23;;;;;;;;;;;;;;;28.06;25.41;101118.00;5096194;28;994;-43
2021/01/09 12:40:48;;;;;;;;;;;;;;;28.61;24.49;101115.19;5098414;28;819;-43
2021/01/09 12:43:13;;;;;;;;;;;;;;;28.74;24.45;101125.38;5097922;28;863;-43
2021/01/09 12:45:39;;;;;;;;;;;;;;;28.79;24.30;101119.41;5097945;28;835;-33
2021/01/09 12:48:04;;;;;;;;;;;;;;;28.87;23.97;101124.72;5098316;28;830;-40
2021/01/09 12:50:29;;;;;;;;;;;;;;;28.99;23.79;101132.41;5098025;28;1968;-32